Aominesanmaru No.58 — JI3551 — position and weather

sailwx.info

Track history (hours):
 
Tides and Currents Weather Stations Pressure Air Temp Water Temp Dewpoint Dewpoint Depression Visibility Wind Speed Wind Dir Waves Ship Positions

Aominesanmaru No.58

Last reported at 2017-Nov-19 20:56 UTC. Time now 2017-Nov-22 16:44 UTC.
Position N 35°30' E 139°55'.

Length 59 m.

Type: Ship (hazmat cat A). MMSI: 431006719.

Date/timePositionNaut miles runAvg speedWind from/ knotsBaromVisibWave heightAir tempDewpointWater temp
2017-Nov-19 20:56N 35°30' E 139°55'511.2
2017-Nov-19 20:30N 35°30' E 139°49'4 7.5
2017-Nov-19 19:59N 35°31' E 139°45'0 0.0
2017-Nov-19 19:29N 35°31' E 139°45'0 0.0
2017-Nov-19 18:59N 35°31' E 139°45'0 0.0
2017-Nov-19 18:29N 35°31' E 139°45'0 0.0
2017-Nov-19 17:59N 35°31' E 139°45'0 0.0
2017-Nov-19 17:29N 35°31' E 139°45'0 0.0
2017-Nov-19 16:59N 35°31' E 139°45'0 0.0
2017-Nov-19 16:29N 35°31' E 139°45'0 0.0
2017-Nov-19 15:59N 35°31' E 139°45'0 0.0
2017-Nov-19 15:23N 35°31' E 139°45'0 0.0
2017-Nov-19 14:59N 35°31' E 139°45'0 0.0
2017-Nov-19 14:29N 35°31' E 139°45'0 0.0
2017-Nov-19 13:59N 35°31' E 139°45'0 0.0
2017-Nov-19 13:29N 35°31' E 139°45'0 0.0
2017-Nov-19 12:59N 35°31' E 139°45'0 0.0
2017-Nov-19 12:29N 35°31' E 139°45'0 0.0
2017-Nov-19 11:50N 35°31' E 139°45'0 0.0
2017-Nov-19 11:29N 35°31' E 139°45'0 0.0
2017-Nov-19 10:53N 35°31' E 139°45'0 0.0
2017-Nov-19 10:29N 35°31' E 139°45'0 0.0
2017-Nov-19 09:56N 35°31' E 139°45'0 0.0
2017-Nov-19 09:29N 35°31' E 139°45'0 0.0
2017-Nov-19 08:50N 35°31' E 139°45'0 0.0
2017-Nov-19 08:23N 35°31' E 139°45'0 0.0
2017-Nov-19 07:47N 35°31' E 139°45'0 0.0
2017-Nov-19 07:29N 35°31' E 139°45'0 0.0
2017-Nov-19 06:59N 35°31' E 139°45'0 0.0
2017-Nov-19 06:23N 35°31' E 139°45'0 0.0
2017-Nov-19 05:59N 35°31' E 139°45'0 0.0
2017-Nov-19 05:29N 35°31' E 139°45'0 0.0
2017-Nov-19 04:59N 35°31' E 139°45'0 0.0
2017-Nov-19 04:23N 35°31' E 139°45'0 0.0
2017-Nov-19 03:56N 35°31' E 139°45'0 0.0
2017-Nov-19 03:23N 35°31' E 139°45'0 0.4
2017-Nov-19 03:00N 35°31' E 139°45'5 9.9
2017-Nov-19 02:30N 35°31' E 139°51'2 0.3
2017-Nov-18 21:08N 35°31' E 139°53'2 8.4
2017-Nov-18 20:51N 35°31' E 139°50'0 0.0
2017-Nov-18 04:00N 35°30' E 139°50'612.5
2017-Nov-18 03:29N 35°27' E 139°44'2 3.9
2017-Nov-18 03:00N 35°27' E 139°41'0 0.0
2017-Nov-18 02:21N 35°27' E 139°41'0 0.0
2017-Nov-18 01:51N 35°27' E 139°41'0 0.0
2017-Nov-18 01:24N 35°27' E 139°41'0 0.0
2017-Nov-18 00:15N 35°27' E 139°41'0 0.0
2017-Nov-17 23:45N 35°27' E 139°41'0 0.0
2017-Nov-17 23:30N 35°27' E 139°41'0 0.0
2017-Nov-17 22:54N 35°27' E 139°41'3 6.7
2017-Nov-17 22:27N 35°28' E 139°45'4 0.2
2017-Nov-16 21:02N 35°30' E 139°49'210.6
2017-Nov-16 20:49N 35°30' E 139°46'4 0.2
2017-Nov-15 22:25N 35°30' E 139°50'4 0.3
2017-Nov-15 06:39N 35°30' E 139°45'3 0.1
2017-Nov-14 05:35N 35°30' E 139°49'310.4
2017-Nov-14 05:18N 35°28' E 139°47'310.5
2017-Nov-14 04:59N 35°26' E 139°44'4 8.3
2017-Nov-14 04:30N 35°24' E 139°39'1 1.5
2017-Nov-14 03:53N 35°24' E 139°38'0 0.0
2017-Nov-14 03:24N 35°24' E 139°38'0 0.0
2017-Nov-14 02:50N 35°24' E 139°38'0 0.0
2017-Nov-14 02:29N 35°24' E 139°38'0 0.1
2017-Nov-14 02:01N 35°24' E 139°38'1 2.6
2017-Nov-14 01:30N 35°24' E 139°40'4 7.4
2017-Nov-14 00:57N 35°27' E 139°43'4 0.2
2017-Nov-13 01:59N 35°30' E 139°46'2 0.6
2017-Nov-12 22:57N 35°29' E 139°45'2 0.1
2017-Nov-12 08:41N 35°30' E 139°45'210.1
2017-Nov-12 08:27N 35°29' E 139°43'4 8.6
2017-Nov-12 07:59N 35°25' E 139°42'3 6.9
2017-Nov-12 07:30N 35°24' E 139°38'0 0.1
2017-Nov-12 06:55N 35°25' E 139°38'0 0.0
2017-Nov-12 06:25N 35°25' E 139°38'0 0.0
2017-Nov-12 05:46N 35°25' E 139°38'1 2.0
2017-Nov-12 05:30N 35°24' E 139°39'6 9.3
2017-Nov-12 04:53N 35°28' E 139°44'2 0.6
2017-Nov-12 01:28N 35°30' E 139°46'1 1.7
2017-Nov-12 00:54N 35°30' E 139°46'1 0.0
2017-Nov-11 08:09N 35°30' E 139°45'210.8
2017-Nov-11 07:56N 35°30' E 139°48'6 1.3
2017-Nov-11 03:44N 35°30' E 139°55'8 0.3
2017-Nov-10 00:40N 35°31' E 139°45'210.1
2017-Nov-10 00:29N 35°29' E 139°43'4 3.3
2017-Nov-09 23:11N 35°25' E 139°43'0 0.1
2017-Nov-09 22:23N 35°25' E 139°43'0 0.1
2017-Nov-09 21:56N 35°25' E 139°43'0 0.8
2017-Nov-09 21:29N 35°25' E 139°43'4 8.4
2017-Nov-09 21:00N 35°30' E 139°43'  
Track history (hours):
 
Tides and Currents Weather Stations Pressure Air Temp Water Temp Dewpoint Dewpoint Depression Visibility Wind Speed Wind Dir Waves Ship Positions

Aominesanmaru No.58

Last reported at 2017-Nov-19 20:56 UTC. Time now 2017-Nov-22 16:44 UTC.
Position N 35°30' E 139°55'.

Length 59 m.

Type: Ship (hazmat cat A). MMSI: 431006719.

Date/timePositionNaut miles runAvg speedWind from/ knotsBaromVisibWave heightAir tempDewpointWater temp
2017-Nov-19 20:56N 35°30' E 139°55'511.2
2017-Nov-19 20:30N 35°30' E 139°49'4 7.5
2017-Nov-19 19:59N 35°31' E 139°45'0 0.0
2017-Nov-19 19:29N 35°31' E 139°45'0 0.0
2017-Nov-19 18:59N 35°31' E 139°45'0 0.0
2017-Nov-19 18:29N 35°31' E 139°45'0 0.0
2017-Nov-19 17:59N 35°31' E 139°45'0 0.0
2017-Nov-19 17:29N 35°31' E 139°45'0 0.0
2017-Nov-19 16:59N 35°31' E 139°45'0 0.0
2017-Nov-19 16:29N 35°31' E 139°45'0 0.0
2017-Nov-19 15:59N 35°31' E 139°45'0 0.0
2017-Nov-19 15:23N 35°31' E 139°45'0 0.0
2017-Nov-19 14:59N 35°31' E 139°45'0 0.0
2017-Nov-19 14:29N 35°31' E 139°45'0 0.0
2017-Nov-19 13:59N 35°31' E 139°45'0 0.0
2017-Nov-19 13:29N 35°31' E 139°45'0 0.0
2017-Nov-19 12:59N 35°31' E 139°45'0 0.0
2017-Nov-19 12:29N 35°31' E 139°45'0 0.0
2017-Nov-19 11:50N 35°31' E 139°45'0 0.0
2017-Nov-19 11:29N 35°31' E 139°45'0 0.0
2017-Nov-19 10:53N 35°31' E 139°45'0 0.0
2017-Nov-19 10:29N 35°31' E 139°45'0 0.0
2017-Nov-19 09:56N 35°31' E 139°45'0 0.0
2017-Nov-19 09:29N 35°31' E 139°45'0 0.0
2017-Nov-19 08:50N 35°31' E 139°45'0 0.0
2017-Nov-19 08:23N 35°31' E 139°45'0 0.0
2017-Nov-19 07:47N 35°31' E 139°45'0 0.0
2017-Nov-19 07:29N 35°31' E 139°45'0 0.0
2017-Nov-19 06:59N 35°31' E 139°45'0 0.0
2017-Nov-19 06:23N 35°31' E 139°45'0 0.0
2017-Nov-19 05:59N 35°31' E 139°45'0 0.0
2017-Nov-19 05:29N 35°31' E 139°45'0 0.0
2017-Nov-19 04:59N 35°31' E 139°45'0 0.0
2017-Nov-19 04:23N 35°31' E 139°45'0 0.0
2017-Nov-19 03:56N 35°31' E 139°45'0 0.0
2017-Nov-19 03:23N 35°31' E 139°45'0 0.4
2017-Nov-19 03:00N 35°31' E 139°45'5 9.9
2017-Nov-19 02:30N 35°31' E 139°51'2 0.3
2017-Nov-18 21:08N 35°31' E 139°53'2 8.4
2017-Nov-18 20:51N 35°31' E 139°50'0 0.0
2017-Nov-18 04:00N 35°30' E 139°50'612.5
2017-Nov-18 03:29N 35°27' E 139°44'2 3.9
2017-Nov-18 03:00N 35°27' E 139°41'0 0.0
2017-Nov-18 02:21N 35°27' E 139°41'0 0.0
2017-Nov-18 01:51N 35°27' E 139°41'0 0.0
2017-Nov-18 01:24N 35°27' E 139°41'0 0.0
2017-Nov-18 00:15N 35°27' E 139°41'0 0.0
2017-Nov-17 23:45N 35°27' E 139°41'0 0.0
2017-Nov-17 23:30N 35°27' E 139°41'0 0.0
2017-Nov-17 22:54N 35°27' E 139°41'3 6.7
2017-Nov-17 22:27N 35°28' E 139°45'4 0.2
2017-Nov-16 21:02N 35°30' E 139°49'210.6
2017-Nov-16 20:49N 35°30' E 139°46'4 0.2
2017-Nov-15 22:25N 35°30' E 139°50'4 0.3
2017-Nov-15 06:39N 35°30' E 139°45'3 0.1
2017-Nov-14 05:35N 35°30' E 139°49'310.4
2017-Nov-14 05:18N 35°28' E 139°47'310.5
2017-Nov-14 04:59N 35°26' E 139°44'4 8.3
2017-Nov-14 04:30N 35°24' E 139°39'1 1.5
2017-Nov-14 03:53N 35°24' E 139°38'0 0.0
2017-Nov-14 03:24N 35°24' E 139°38'0 0.0
2017-Nov-14 02:50N 35°24' E 139°38'0 0.0
2017-Nov-14 02:29N 35°24' E 139°38'0 0.1
2017-Nov-14 02:01N 35°24' E 139°38'1 2.6
2017-Nov-14 01:30N 35°24' E 139°40'4 7.4
2017-Nov-14 00:57N 35°27' E 139°43'4 0.2
2017-Nov-13 01:59N 35°30' E 139°46'2 0.6
2017-Nov-12 22:57N 35°29' E 139°45'2 0.1
2017-Nov-12 08:41N 35°30' E 139°45'210.1
2017-Nov-12 08:27N 35°29' E 139°43'4 8.6
2017-Nov-12 07:59N 35°25' E 139°42'3 6.9
2017-Nov-12 07:30N 35°24' E 139°38'0 0.1
2017-Nov-12 06:55N 35°25' E 139°38'0 0.0
2017-Nov-12 06:25N 35°25' E 139°38'0 0.0
2017-Nov-12 05:46N 35°25' E 139°38'1 2.0
2017-Nov-12 05:30N 35°24' E 139°39'6 9.3
2017-Nov-12 04:53N 35°28' E 139°44'2 0.6
2017-Nov-12 01:28N 35°30' E 139°46'1 1.7
2017-Nov-12 00:54N 35°30' E 139°46'1 0.0
2017-Nov-11 08:09N 35°30' E 139°45'210.8
2017-Nov-11 07:56N 35°30' E 139°48'6 1.3
2017-Nov-11 03:44N 35°30' E 139°55'8 0.3
2017-Nov-10 00:40N 35°31' E 139°45'210.1
2017-Nov-10 00:29N 35°29' E 139°43'4 3.3
2017-Nov-09 23:11N 35°25' E 139°43'0 0.1
2017-Nov-09 22:23N 35°25' E 139°43'0 0.1
2017-Nov-09 21:56N 35°25' E 139°43'0 0.8
2017-Nov-09 21:29N 35°25' E 139°43'4 8.4
2017-Nov-09 21:00N 35°30' E 139°43'  

Dump ship's entire track history